sensor_id;sensor_type;location;lat;lon;timestamp;P1;durP1;ratioP1;P2;durP2;ratioP2
23155;SDS011;11746;50.876;4.246;2023-04-03T00:02:19;8.27;;;5.20;;
23155;SDS011;11746;50.876;4.246;2023-04-03T00:04:45;8.82;;;4.95;;
23155;SDS011;11746;50.876;4.246;2023-04-03T00:07:11;8.98;;;5.57;;
23155;SDS011;11746;50.876;4.246;2023-04-03T00:09:37;9.10;;;5.45;;
23155;SDS011;11746;50.876;4.246;2023-04-03T00:12:03;8.10;;;5.25;;
23155;SDS011;11746;50.876;4.246;2023-04-03T00:14:31;6.60;;;4.82;;
23155;SDS011;11746;50.876;4.246;2023-04-03T00:16:56;6.22;;;4.95;;
23155;SDS011;11746;50.876;4.246;2023-04-03T00:19:22;9.45;;;5.00;;
23155;SDS011;11746;50.876;4.246;2023-04-03T00:21:50;9.40;;;5.18;;
23155;SDS011;11746;50.876;4.246;2023-04-03T00:24:18;7.30;;;5.68;;
23155;SDS011;11746;50.876;4.246;2023-04-03T00:26:44;7.72;;;5.45;;
23155;SDS011;11746;50.876;4.246;2023-04-03T00:29:09;7.93;;;5.70;;
23155;SDS011;11746;50.876;4.246;2023-04-03T00:31:35;7.05;;;5.25;;
23155;SDS011;11746;50.876;4.246;2023-04-03T00:34:01;7.18;;;5.18;;
23155;SDS011;11746;50.876;4.246;2023-04-03T00:36:26;8.05;;;5.35;;
23155;SDS011;11746;50.876;4.246;2023-04-03T00:38:55;8.70;;;4.93;;
23155;SDS011;11746;50.876;4.246;2023-04-03T00:41:20;7.53;;;4.53;;
23155;SDS011;11746;50.876;4.246;2023-04-03T00:43:46;8.77;;;5.13;;
23155;SDS011;11746;50.876;4.246;2023-04-03T00:46:12;8.07;;;4.80;;
23155;SDS011;11746;50.876;4.246;2023-04-03T00:51:09;5.93;;;4.43;;
23155;SDS011;11746;50.876;4.246;2023-04-03T00:53:43;7.47;;;4.05;;
23155;SDS011;11746;50.876;4.246;2023-04-03T00:56:15;8.35;;;4.78;;
23155;SDS011;11746;50.876;4.246;2023-04-03T00:58:46;8.48;;;4.80;;
23155;SDS011;11746;50.876;4.246;2023-04-03T01:01:18;6.18;;;4.25;;
23155;SDS011;11746;50.876;4.246;2023-04-03T01:03:47;8.32;;;4.70;;
23155;SDS011;11746;50.876;4.246;2023-04-03T01:06:13;7.88;;;4.80;;
23155;SDS011;11746;50.876;4.246;2023-04-03T01:08:45;7.57;;;4.70;;
23155;SDS011;11746;50.876;4.246;2023-04-03T01:11:14;5.20;;;4.18;;
23155;SDS011;11746;50.876;4.246;2023-04-03T01:13:40;7.43;;;4.57;;
23155;SDS011;11746;50.876;4.246;2023-04-03T01:16:06;6.15;;;4.15;;
23155;SDS011;11746;50.876;4.246;2023-04-03T01:18:36;9.63;;;4.85;;
23155;SDS011;11746;50.876;4.246;2023-04-03T01:26:03;6.25;;;3.65;;
23155;SDS011;11746;50.876;4.246;2023-04-03T01:28:31;8.98;;;4.75;;
23155;SDS011;11746;50.876;4.246;2023-04-03T01:33:40;7.47;;;3.95;;
23155;SDS011;11746;50.876;4.246;2023-04-03T01:36:08;7.65;;;4.57;;
23155;SDS011;11746;50.876;4.246;2023-04-03T01:38:35;7.88;;;4.38;;
23155;SDS011;11746;50.876;4.246;2023-04-03T01:41:01;10.13;;;4.57;;
23155;SDS011;11746;50.876;4.246;2023-04-03T01:43:26;5.50;;;4.13;;
23155;SDS011;11746;50.876;4.246;2023-04-03T01:45:52;8.57;;;4.20;;
23155;SDS011;11746;50.876;4.246;2023-04-03T01:48:20;8.13;;;4.20;;
23155;SDS011;11746;50.876;4.246;2023-04-03T01:50:46;6.75;;;4.00;;
23155;SDS011;11746;50.876;4.246;2023-04-03T01:53:15;5.55;;;4.18;;
23155;SDS011;11746;50.876;4.246;2023-04-03T01:55:40;9.05;;;4.45;;
23155;SDS011;11746;50.876;4.246;2023-04-03T01:58:06;9.55;;;5.28;;
23155;SDS011;11746;50.876;4.246;2023-04-03T02:00:32;6.90;;;4.65;;
23155;SDS011;11746;50.876;4.246;2023-04-03T02:02:57;7.00;;;4.30;;
23155;SDS011;11746;50.876;4.246;2023-04-03T02:05:23;8.15;;;4.20;;
23155;SDS011;11746;50.876;4.246;2023-04-03T02:07:51;6.30;;;4.18;;
23155;SDS011;11746;50.876;4.246;2023-04-03T02:10:16;6.18;;;4.32;;
23155;SDS011;11746;50.876;4.246;2023-04-03T02:12:47;7.35;;;4.75;;
23155;SDS011;11746;50.876;4.246;2023-04-03T02:15:13;7.88;;;4.70;;
23155;SDS011;11746;50.876;4.246;2023-04-03T02:17:38;7.18;;;4.35;;
23155;SDS011;11746;50.876;4.246;2023-04-03T02:20:04;5.30;;;4.03;;
23155;SDS011;11746;50.876;4.246;2023-04-03T02:22:30;6.28;;;4.60;;
23155;SDS011;11746;50.876;4.246;2023-04-03T02:24:56;6.50;;;4.57;;
23155;SDS011;11746;50.876;4.246;2023-04-03T02:27:22;6.47;;;4.55;;
23155;SDS011;11746;50.876;4.246;2023-04-03T02:29:52;7.85;;;4.38;;
23155;SDS011;11746;50.876;4.246;2023-04-03T02:32:19;5.85;;;4.38;;
23155;SDS011;11746;50.876;4.246;2023-04-03T02:34:45;9.07;;;4.90;;
23155;SDS011;11746;50.876;4.246;2023-04-03T02:37:11;6.75;;;4.82;;
23155;SDS011;11746;50.876;4.246;2023-04-03T02:39:36;6.88;;;4.78;;
23155;SDS011;11746;50.876;4.246;2023-04-03T02:42:02;9.68;;;4.75;;
23155;SDS011;11746;50.876;4.246;2023-04-03T02:44:28;8.45;;;4.68;;
23155;SDS011;11746;50.876;4.246;2023-04-03T02:46:56;9.13;;;5.07;;
23155;SDS011;11746;50.876;4.246;2023-04-03T02:49:21;9.68;;;4.68;;
23155;SDS011;11746;50.876;4.246;2023-04-03T02:51:47;7.03;;;4.30;;
23155;SDS011;11746;50.876;4.246;2023-04-03T02:54:13;8.55;;;4.80;;
23155;SDS011;11746;50.876;4.246;2023-04-03T02:56:38;10.07;;;4.80;;
23155;SDS011;11746;50.876;4.246;2023-04-03T02:59:07;7.93;;;4.80;;
23155;SDS011;11746;50.876;4.246;2023-04-03T03:01:35;7.97;;;5.00;;
23155;SDS011;11746;50.876;4.246;2023-04-03T03:04:05;6.50;;;4.15;;
23155;SDS011;11746;50.876;4.246;2023-04-03T03:06:31;7.03;;;4.70;;
23155;SDS011;11746;50.876;4.246;2023-04-03T03:08:59;7.53;;;5.38;;
23155;SDS011;11746;50.876;4.246;2023-04-03T03:11:28;6.38;;;5.13;;
23155;SDS011;11746;50.876;4.246;2023-04-03T03:13:55;6.90;;;4.60;;
23155;SDS011;11746;50.876;4.246;2023-04-03T03:16:21;6.70;;;4.78;;
23155;SDS011;11746;50.876;4.246;2023-04-03T03:18:49;7.35;;;4.72;;
23155;SDS011;11746;50.876;4.246;2023-04-03T03:21:14;5.75;;;4.80;;
23155;SDS011;11746;50.876;4.246;2023-04-03T03:23:40;6.63;;;4.60;;
23155;SDS011;11746;50.876;4.246;2023-04-03T03:26:09;10.48;;;5.57;;
23155;SDS011;11746;50.876;4.246;2023-04-03T03:28:35;7.78;;;5.05;;
23155;SDS011;11746;50.876;4.246;2023-04-03T03:31:02;7.93;;;4.78;;
23155;SDS011;11746;50.876;4.246;2023-04-03T03:33:28;6.40;;;4.70;;
23155;SDS011;11746;50.876;4.246;2023-04-03T03:35:54;6.35;;;4.93;;
23155;SDS011;11746;50.876;4.246;2023-04-03T03:38:20;7.13;;;4.90;;
23155;SDS011;11746;50.876;4.246;2023-04-03T03:40:49;11.45;;;4.57;;
23155;SDS011;11746;50.876;4.246;2023-04-03T03:43:17;6.80;;;5.00;;
23155;SDS011;11746;50.876;4.246;2023-04-03T03:45:44;9.40;;;4.93;;
23155;SDS011;11746;50.876;4.246;2023-04-03T03:48:10;7.97;;;5.10;;
23155;SDS011;11746;50.876;4.246;2023-04-03T03:50:36;6.80;;;4.85;;
23155;SDS011;11746;50.876;4.246;2023-04-03T03:53:01;7.65;;;5.10;;
23155;SDS011;11746;50.876;4.246;2023-04-03T03:55:27;7.72;;;5.00;;
23155;SDS011;11746;50.876;4.246;2023-04-03T03:57:55;6.78;;;5.03;;
23155;SDS011;11746;50.876;4.246;2023-04-03T04:00:21;10.30;;;5.30;;
23155;SDS011;11746;50.876;4.246;2023-04-03T04:02:46;9.35;;;5.22;;
23155;SDS011;11746;50.876;4.246;2023-04-03T04:05:14;7.63;;;5.20;;
23155;SDS011;11746;50.876;4.246;2023-04-03T04:07:40;6.43;;;5.00;;
23155;SDS011;11746;50.876;4.246;2023-04-03T04:10:06;7.20;;;5.55;;
23155;SDS011;11746;50.876;4.246;2023-04-03T04:12:32;7.15;;;4.82;;
23155;SDS011;11746;50.876;4.246;2023-04-03T04:14:57;8.65;;;5.28;;
23155;SDS011;11746;50.876;4.246;2023-04-03T04:17:23;8.63;;;5.55;;
23155;SDS011;11746;50.876;4.246;2023-04-03T04:19:49;8.63;;;5.47;;
23155;SDS011;11746;50.876;4.246;2023-04-03T04:22:16;9.02;;;5.70;;
23155;SDS011;11746;50.876;4.246;2023-04-03T04:24:42;8.98;;;5.53;;
23155;SDS011;11746;50.876;4.246;2023-04-03T04:27:08;8.95;;;5.65;;
23155;SDS011;11746;50.876;4.246;2023-04-03T04:29:33;8.98;;;5.45;;
23155;SDS011;11746;50.876;4.246;2023-04-03T04:32:01;7.95;;;5.40;;
23155;SDS011;11746;50.876;4.246;2023-04-03T04:34:28;9.90;;;6.15;;
23155;SDS011;11746;50.876;4.246;2023-04-03T04:36:56;8.68;;;6.40;;
23155;SDS011;11746;50.876;4.246;2023-04-03T04:39:24;9.48;;;5.82;;
23155;SDS011;11746;50.876;4.246;2023-04-03T04:41:52;9.30;;;5.88;;
23155;SDS011;11746;50.876;4.246;2023-04-03T04:44:20;12.15;;;6.00;;
23155;SDS011;11746;50.876;4.246;2023-04-03T04:46:45;12.25;;;6.75;;
23155;SDS011;11746;50.876;4.246;2023-04-03T04:49:11;13.63;;;6.20;;
23155;SDS011;11746;50.876;4.246;2023-04-03T04:51:36;11.75;;;6.75;;
23155;SDS011;11746;50.876;4.246;2023-04-03T04:54:02;8.10;;;6.30;;
23155;SDS011;11746;50.876;4.246;2023-04-03T04:56:28;10.27;;;6.32;;
23155;SDS011;11746;50.876;4.246;2023-04-03T04:58:53;9.05;;;6.18;;
23155;SDS011;11746;50.876;4.246;2023-04-03T05:01:19;11.70;;;6.90;;
23155;SDS011;11746;50.876;4.246;2023-04-03T05:03:47;10.30;;;7.07;;
23155;SDS011;11746;50.876;4.246;2023-04-03T05:06:15;9.45;;;6.10;;
23155;SDS011;11746;50.876;4.246;2023-04-03T05:08:41;8.77;;;5.97;;
23155;SDS011;11746;50.876;4.246;2023-04-03T05:11:07;7.80;;;6.30;;
23155;SDS011;11746;50.876;4.246;2023-04-03T05:13:32;9.00;;;6.82;;
23155;SDS011;11746;50.876;4.246;2023-04-03T05:15:58;8.75;;;6.15;;
23155;SDS011;11746;50.876;4.246;2023-04-03T05:18:24;10.48;;;6.60;;
23155;SDS011;11746;50.876;4.246;2023-04-03T05:20:51;10.77;;;7.07;;
23155;SDS011;11746;50.876;4.246;2023-04-03T05:23:17;10.70;;;6.53;;
23155;SDS011;11746;50.876;4.246;2023-04-03T05:25:45;13.38;;;7.15;;
23155;SDS011;11746;50.876;4.246;2023-04-03T05:28:12;9.15;;;6.47;;
23155;SDS011;11746;50.876;4.246;2023-04-03T05:30:38;9.93;;;6.88;;
23155;SDS011;11746;50.876;4.246;2023-04-03T05:33:03;9.75;;;7.32;;
23155;SDS011;11746;50.876;4.246;2023-04-03T05:35:31;9.98;;;6.88;;
23155;SDS011;11746;50.876;4.246;2023-04-03T05:37:57;9.35;;;7.00;;
23155;SDS011;11746;50.876;4.246;2023-04-03T05:40:22;11.07;;;7.43;;
23155;SDS011;11746;50.876;4.246;2023-04-03T05:42:51;14.50;;;7.78;;
23155;SDS011;11746;50.876;4.246;2023-04-03T05:45:18;9.38;;;6.95;;
23155;SDS011;11746;50.876;4.246;2023-04-03T05:47:46;12.07;;;7.10;;
23155;SDS011;11746;50.876;4.246;2023-04-03T05:50:14;13.43;;;7.70;;
23155;SDS011;11746;50.876;4.246;2023-04-03T05:52:41;9.98;;;6.90;;
23155;SDS011;11746;50.876;4.246;2023-04-03T05:55:12;10.40;;;6.90;;
23155;SDS011;11746;50.876;4.246;2023-04-03T05:57:40;9.70;;;6.90;;
23155;SDS011;11746;50.876;4.246;2023-04-03T06:00:08;26.40;;;7.60;;
23155;SDS011;11746;50.876;4.246;2023-04-03T06:02:37;10.95;;;7.20;;
23155;SDS011;11746;50.876;4.246;2023-04-03T06:05:03;8.93;;;6.72;;
23155;SDS011;11746;50.876;4.246;2023-04-03T06:07:29;11.80;;;8.02;;
23155;SDS011;11746;50.876;4.246;2023-04-03T06:09:55;10.20;;;7.22;;
23155;SDS011;11746;50.876;4.246;2023-04-03T06:12:24;11.98;;;7.15;;
23155;SDS011;11746;50.876;4.246;2023-04-03T06:14:50;11.05;;;7.45;;
23155;SDS011;11746;50.876;4.246;2023-04-03T06:17:18;9.55;;;7.07;;
23155;SDS011;11746;50.876;4.246;2023-04-03T06:19:44;16.17;;;7.07;;
23155;SDS011;11746;50.876;4.246;2023-04-03T06:22:10;11.95;;;7.53;;
23155;SDS011;11746;50.876;4.246;2023-04-03T06:24:36;9.90;;;7.57;;
23155;SDS011;11746;50.876;4.246;2023-04-03T06:27:03;14.27;;;7.35;;
23155;SDS011;11746;50.876;4.246;2023-04-03T06:29:31;10.45;;;7.95;;
23155;SDS011;11746;50.876;4.246;2023-04-03T06:32:02;10.45;;;7.35;;
23155;SDS011;11746;50.876;4.246;2023-04-03T06:34:27;10.30;;;7.30;;
23155;SDS011;11746;50.876;4.246;2023-04-03T06:36:53;12.77;;;8.20;;
23155;SDS011;11746;50.876;4.246;2023-04-03T06:39:20;18.35;;;12.20;;
23155;SDS011;11746;50.876;4.246;2023-04-03T06:41:49;12.80;;;10.13;;
23155;SDS011;11746;50.876;4.246;2023-04-03T06:44:15;12.05;;;9.15;;
23155;SDS011;11746;50.876;4.246;2023-04-03T06:46:41;13.23;;;9.02;;
23155;SDS011;11746;50.876;4.246;2023-04-03T06:49:08;13.10;;;10.02;;
23155;SDS011;11746;50.876;4.246;2023-04-03T06:51:34;10.77;;;8.15;;
23155;SDS011;11746;50.876;4.246;2023-04-03T06:54:01;13.00;;;9.00;;
23155;SDS011;11746;50.876;4.246;2023-04-03T06:56:31;12.82;;;8.85;;
23155;SDS011;11746;50.876;4.246;2023-04-03T06:58:59;10.98;;;8.15;;
23155;SDS011;11746;50.876;4.246;2023-04-03T07:01:27;12.77;;;8.48;;
23155;SDS011;11746;50.876;4.246;2023-04-03T07:03:54;10.43;;;6.75;;
23155;SDS011;11746;50.876;4.246;2023-04-03T07:06:21;12.27;;;7.28;;
23155;SDS011;11746;50.876;4.246;2023-04-03T07:08:47;11.38;;;7.72;;
23155;SDS011;11746;50.876;4.246;2023-04-03T07:11:14;10.30;;;7.85;;
23155;SDS011;11746;50.876;4.246;2023-04-03T07:13:42;12.27;;;6.97;;
23155;SDS011;11746;50.876;4.246;2023-04-03T07:16:08;12.32;;;8.68;;
23155;SDS011;11746;50.876;4.246;2023-04-03T07:18:34;10.32;;;7.88;;
23155;SDS011;11746;50.876;4.246;2023-04-03T07:21:00;13.18;;;8.13;;
23155;SDS011;11746;50.876;4.246;2023-04-03T07:23:26;10.73;;;8.02;;
23155;SDS011;11746;50.876;4.246;2023-04-03T07:25:52;10.80;;;7.65;;
23155;SDS011;11746;50.876;4.246;2023-04-03T07:28:20;10.85;;;7.75;;
23155;SDS011;11746;50.876;4.246;2023-04-03T07:30:51;12.82;;;7.72;;
23155;SDS011;11746;50.876;4.246;2023-04-03T07:33:21;12.45;;;8.15;;
23155;SDS011;11746;50.876;4.246;2023-04-03T07:35:51;11.52;;;7.95;;
23155;SDS011;11746;50.876;4.246;2023-04-03T07:38:16;11.85;;;8.55;;
23155;SDS011;11746;50.876;4.246;2023-04-03T07:40:50;10.27;;;6.88;;
23155;SDS011;11746;50.876;4.246;2023-04-03T07:43:17;9.75;;;7.00;;
23155;SDS011;11746;50.876;4.246;2023-04-03T07:45:45;12.30;;;7.25;;
23155;SDS011;11746;50.876;4.246;2023-04-03T07:48:14;11.18;;;7.95;;
23155;SDS011;11746;50.876;4.246;2023-04-03T07:50:41;12.45;;;8.02;;
23155;SDS011;11746;50.876;4.246;2023-04-03T07:53:06;8.95;;;7.57;;
23155;SDS011;11746;50.876;4.246;2023-04-03T07:55:32;9.25;;;6.88;;
23155;SDS011;11746;50.876;4.246;2023-04-03T07:58:01;16.40;;;7.93;;
23155;SDS011;11746;50.876;4.246;2023-04-03T08:00:26;12.00;;;7.85;;
23155;SDS011;11746;50.876;4.246;2023-04-03T08:02:52;10.80;;;7.30;;
23155;SDS011;11746;50.876;4.246;2023-04-03T08:05:18;8.85;;;6.50;;
23155;SDS011;11746;50.876;4.246;2023-04-03T08:07:44;10.63;;;7.07;;
23155;SDS011;11746;50.876;4.246;2023-04-03T08:10:10;8.48;;;6.03;;
23155;SDS011;11746;50.876;4.246;2023-04-03T08:12:38;11.40;;;7.10;;
23155;SDS011;11746;50.876;4.246;2023-04-03T08:15:06;12.50;;;8.23;;
23155;SDS011;11746;50.876;4.246;2023-04-03T08:17:35;12.45;;;5.57;;
23155;SDS011;11746;50.876;4.246;2023-04-03T08:20:02;7.78;;;6.10;;
23155;SDS011;11746;50.876;4.246;2023-04-03T08:22:30;7.60;;;5.10;;
23155;SDS011;11746;50.876;4.246;2023-04-03T08:24:55;7.88;;;5.80;;
23155;SDS011;11746;50.876;4.246;2023-04-03T08:27:23;48.25;;;9.02;;
23155;SDS011;11746;50.876;4.246;2023-04-03T08:29:49;8.13;;;5.50;;
23155;SDS011;11746;50.876;4.246;2023-04-03T08:32:15;9.68;;;6.05;;
23155;SDS011;11746;50.876;4.246;2023-04-03T08:34:43;7.53;;;5.28;;
23155;SDS011;11746;50.876;4.246;2023-04-03T08:37:09;11.10;;;5.50;;
23155;SDS011;11746;50.876;4.246;2023-04-03T08:39:35;8.98;;;5.05;;
23155;SDS011;11746;50.876;4.246;2023-04-03T08:42:05;6.97;;;4.68;;
23155;SDS011;11746;50.876;4.246;2023-04-03T08:44:47;7.32;;;4.05;;
23155;SDS011;11746;50.876;4.246;2023-04-03T08:50:22;9.82;;;5.72;;
23155;SDS011;11746;50.876;4.246;2023-04-03T08:52:55;9.48;;;4.70;;
23155;SDS011;11746;50.876;4.246;2023-04-03T08:55:25;6.63;;;4.43;;
23155;SDS011;11746;50.876;4.246;2023-04-03T08:58:02;6.82;;;4.55;;
23155;SDS011;11746;50.876;4.246;2023-04-03T09:01:19;6.75;;;4.25;;
23155;SDS011;11746;50.876;4.246;2023-04-03T09:03:28;7.43;;;4.35;;
23155;SDS011;11746;50.876;4.246;2023-04-03T09:08:43;7.80;;;3.60;;
23155;SDS011;11746;50.876;4.246;2023-04-03T09:16:47;8.43;;;3.83;;
23155;SDS011;11746;50.876;4.246;2023-04-03T09:22:43;8.10;;;3.67;;
23155;SDS011;11746;50.876;4.246;2023-04-03T09:27:24;14.13;;;4.60;;
23155;SDS011;11746;50.876;4.246;2023-04-03T09:29:49;6.40;;;2.33;;
23155;SDS011;11746;50.876;4.246;2023-04-03T09:32:30;6.03;;;2.50;;
23155;SDS011;11746;50.876;4.246;2023-04-03T09:35:32;6.55;;;2.90;;
23155;SDS011;11746;50.876;4.246;2023-04-03T09:37:55;5.47;;;2.72;;
23155;SDS011;11746;50.876;4.246;2023-04-03T09:40:30;5.57;;;2.55;;
23155;SDS011;11746;50.876;4.246;2023-04-03T09:45:45;4.72;;;2.35;;
23155;SDS011;11746;50.876;4.246;2023-04-03T09:50:38;4.95;;;2.15;;
23155;SDS011;11746;50.876;4.246;2023-04-03T09:53:34;5.00;;;3.33;;
23155;SDS011;11746;50.876;4.246;2023-04-03T09:56:04;9.38;;;4.20;;
23155;SDS011;11746;50.876;4.246;2023-04-03T09:58:40;5.72;;;2.00;;
23155;SDS011;11746;50.876;4.246;2023-04-03T10:01:56;6.85;;;2.60;;
23155;SDS011;11746;50.876;4.246;2023-04-03T10:04:03;4.68;;;2.40;;
23155;SDS011;11746;50.876;4.246;2023-04-03T10:06:42;17.45;;;2.72;;
23155;SDS011;11746;50.876;4.246;2023-04-03T10:19:40;4.05;;;1.88;;
23155;SDS011;11746;50.876;4.246;2023-04-03T10:24:58;4.68;;;2.03;;
23155;SDS011;11746;50.876;4.246;2023-04-03T10:27:42;6.40;;;2.08;;
23155;SDS011;11746;50.876;4.246;2023-04-03T10:41:35;13.48;;;1.85;;
23155;SDS011;11746;50.876;4.246;2023-04-03T10:47:29;7.47;;;2.42;;
23155;SDS011;11746;50.876;4.246;2023-04-03T10:50:10;5.65;;;1.70;;
23155;SDS011;11746;50.876;4.246;2023-04-03T10:52:53;10.70;;;1.67;;
23155;SDS011;11746;50.876;4.246;2023-04-03T10:55:45;14.85;;;2.25;;
23155;SDS011;11746;50.876;4.246;2023-04-03T11:00:56;4.60;;;1.80;;
23155;SDS011;11746;50.876;4.246;2023-04-03T11:06:04;3.80;;;1.58;;
23155;SDS011;11746;50.876;4.246;2023-04-03T11:08:34;6.38;;;1.65;;
23155;SDS011;11746;50.876;4.246;2023-04-03T11:11:08;5.57;;;1.52;;
23155;SDS011;11746;50.876;4.246;2023-04-03T11:13:46;5.07;;;1.67;;
23155;SDS011;11746;50.876;4.246;2023-04-03T11:16:19;6.18;;;1.50;;
23155;SDS011;11746;50.876;4.246;2023-04-03T11:18:51;6.70;;;1.70;;
23155;SDS011;11746;50.876;4.246;2023-04-03T11:21:22;6.70;;;2.35;;
23155;SDS011;11746;50.876;4.246;2023-04-03T11:24:05;5.07;;;1.98;;
23155;SDS011;11746;50.876;4.246;2023-04-03T11:26:48;5.30;;;2.25;;
23155;SDS011;11746;50.876;4.246;2023-04-03T11:29:18;3.38;;;1.73;;
23155;SDS011;11746;50.876;4.246;2023-04-03T11:34:47;3.67;;;1.80;;
23155;SDS011;11746;50.876;4.246;2023-04-03T11:37:33;5.63;;;1.70;;
23155;SDS011;11746;50.876;4.246;2023-04-03T11:40:06;3.35;;;1.50;;
23155;SDS011;11746;50.876;4.246;2023-04-03T11:42:48;4.05;;;1.20;;
23155;SDS011;11746;50.876;4.246;2023-04-03T11:58:34;12.13;;;1.65;;
23155;SDS011;11746;50.876;4.246;2023-04-03T12:01:10;4.90;;;1.63;;
23155;SDS011;11746;50.876;4.246;2023-04-03T12:03:56;8.27;;;2.15;;
23155;SDS011;11746;50.876;4.246;2023-04-03T12:09:00;40.83;;;3.53;;
23155;SDS011;11746;50.876;4.246;2023-04-03T12:11:28;5.13;;;1.65;;
23155;SDS011;11746;50.876;4.246;2023-04-03T12:16:22;4.22;;;1.30;;
23155;SDS011;11746;50.876;4.246;2023-04-03T12:29:17;5.43;;;2.17;;
23155;SDS011;11746;50.876;4.246;2023-04-03T12:40:02;6.75;;;2.33;;
23155;SDS011;11746;50.876;4.246;2023-04-03T12:48:30;3.92;;;1.80;;
23155;SDS011;11746;50.876;4.246;2023-04-03T12:50:58;4.53;;;1.70;;
23155;SDS011;11746;50.876;4.246;2023-04-03T12:53:26;3.30;;;1.35;;
23155;SDS011;11746;50.876;4.246;2023-04-03T12:56:18;4.25;;;1.60;;
23155;SDS011;11746;50.876;4.246;2023-04-03T12:59:12;8.57;;;1.60;;
23155;SDS011;11746;50.876;4.246;2023-04-03T13:01:55;4.40;;;1.67;;
23155;SDS011;11746;50.876;4.246;2023-04-03T13:04:29;4.55;;;2.13;;
23155;SDS011;11746;50.876;4.246;2023-04-03T13:06:56;5.28;;;2.05;;
23155;SDS011;11746;50.876;4.246;2023-04-03T13:09:27;5.90;;;2.22;;
23155;SDS011;11746;50.876;4.246;2023-04-03T13:11:56;2.25;;;1.33;;
23155;SDS011;11746;50.876;4.246;2023-04-03T13:14:30;2.47;;;1.33;;
23155;SDS011;11746;50.876;4.246;2023-04-03T13:16:56;6.97;;;2.20;;
23155;SDS011;11746;50.876;4.246;2023-04-03T13:19:31;2.10;;;1.20;;
23155;SDS011;11746;50.876;4.246;2023-04-03T13:24:49;12.32;;;2.03;;
23155;SDS011;11746;50.876;4.246;2023-04-03T13:27:22;4.88;;;1.80;;
23155;SDS011;11746;50.876;4.246;2023-04-03T13:29:53;9.77;;;2.33;;
23155;SDS011;11746;50.876;4.246;2023-04-03T13:32:23;17.23;;;2.38;;
23155;SDS011;11746;50.876;4.246;2023-04-03T13:34:51;4.60;;;1.50;;
23155;SDS011;11746;50.876;4.246;2023-04-03T13:40:02;4.90;;;1.75;;
23155;SDS011;11746;50.876;4.246;2023-04-03T13:42:32;4.72;;;1.40;;
23155;SDS011;11746;50.876;4.246;2023-04-03T13:45:20;11.13;;;2.17;;
23155;SDS011;11746;50.876;4.246;2023-04-03T13:47:54;3.42;;;1.20;;
23155;SDS011;11746;50.876;4.246;2023-04-03T13:50:52;16.45;;;2.15;;
23155;SDS011;11746;50.876;4.246;2023-04-03T13:53:23;5.18;;;1.30;;
23155;SDS011;11746;50.876;4.246;2023-04-03T13:58:32;4.35;;;1.17;;
23155;SDS011;11746;50.876;4.246;2023-04-03T14:01:10;15.32;;;1.75;;
23155;SDS011;11746;50.876;4.246;2023-04-03T14:04:01;4.88;;;1.30;;
23155;SDS011;11746;50.876;4.246;2023-04-03T14:06:35;3.70;;;1.08;;
23155;SDS011;11746;50.876;4.246;2023-04-03T14:09:01;6.80;;;1.17;;
23155;SDS011;11746;50.876;4.246;2023-04-03T14:11:29;162.40;;;13.10;;
23155;SDS011;11746;50.876;4.246;2023-04-03T14:14:00;4.70;;;1.58;;
23155;SDS011;11746;50.876;4.246;2023-04-03T14:16:32;4.07;;;1.42;;
23155;SDS011;11746;50.876;4.246;2023-04-03T14:19:02;3.63;;;1.38;;
23155;SDS011;11746;50.876;4.246;2023-04-03T14:21:27;5.15;;;2.05;;
23155;SDS011;11746;50.876;4.246;2023-04-03T14:23:53;5.93;;;1.50;;
23155;SDS011;11746;50.876;4.246;2023-04-03T14:26:20;4.53;;;2.40;;
23155;SDS011;11746;50.876;4.246;2023-04-03T14:28:52;3.90;;;1.25;;
23155;SDS011;11746;50.876;4.246;2023-04-03T14:31:24;2.92;;;1.10;;
23155;SDS011;11746;50.876;4.246;2023-04-03T14:33:50;65.95;;;5.40;;
23155;SDS011;11746;50.876;4.246;2023-04-03T14:36:21;24.73;;;2.45;;
23155;SDS011;11746;50.876;4.246;2023-04-03T14:38:52;13.10;;;1.70;;
23155;SDS011;11746;50.876;4.246;2023-04-03T14:41:19;5.00;;;1.75;;
23155;SDS011;11746;50.876;4.246;2023-04-03T14:43:47;3.75;;;1.45;;
23155;SDS011;11746;50.876;4.246;2023-04-03T14:48:44;24.33;;;2.75;;
23155;SDS011;11746;50.876;4.246;2023-04-03T14:51:11;5.05;;;1.35;;
23155;SDS011;11746;50.876;4.246;2023-04-03T14:53:38;2.95;;;1.30;;
23155;SDS011;11746;50.876;4.246;2023-04-03T14:56:11;4.20;;;1.13;;
23155;SDS011;11746;50.876;4.246;2023-04-03T14:58:51;9.00;;;1.30;;
23155;SDS011;11746;50.876;4.246;2023-04-03T15:01:21;4.07;;;1.30;;
23155;SDS011;11746;50.876;4.246;2023-04-03T15:03:46;6.32;;;1.38;;
23155;SDS011;11746;50.876;4.246;2023-04-03T15:06:15;2.97;;;1.23;;
23155;SDS011;11746;50.876;4.246;2023-04-03T15:08:43;27.50;;;11.80;;
23155;SDS011;11746;50.876;4.246;2023-04-03T15:11:12;34.72;;;7.68;;
23155;SDS011;11746;50.876;4.246;2023-04-03T15:13:41;21.60;;;4.43;;
23155;SDS011;11746;50.876;4.246;2023-04-03T15:16:12;30.38;;;9.77;;
23155;SDS011;11746;50.876;4.246;2023-04-03T15:18:41;13.00;;;5.75;;
23155;SDS011;11746;50.876;4.246;2023-04-03T15:21:13;15.27;;;5.82;;
23155;SDS011;11746;50.876;4.246;2023-04-03T15:23:41;30.90;;;11.60;;
23155;SDS011;11746;50.876;4.246;2023-04-03T15:26:07;13.50;;;3.75;;
23155;SDS011;11746;50.876;4.246;2023-04-03T15:28:34;25.23;;;8.43;;
23155;SDS011;11746;50.876;4.246;2023-04-03T15:31:11;10.65;;;3.55;;
23155;SDS011;11746;50.876;4.246;2023-04-03T15:33:39;16.58;;;5.45;;
23155;SDS011;11746;50.876;4.246;2023-04-03T15:36:05;19.00;;;6.10;;
23155;SDS011;11746;50.876;4.246;2023-04-03T15:38:31;16.33;;;4.60;;
23155;SDS011;11746;50.876;4.246;2023-04-03T15:40:56;8.93;;;3.72;;
23155;SDS011;11746;50.876;4.246;2023-04-03T15:43:22;5.60;;;1.70;;
23155;SDS011;11746;50.876;4.246;2023-04-03T15:45:48;3.45;;;1.27;;
23155;SDS011;11746;50.876;4.246;2023-04-03T15:48:16;3.03;;;1.20;;
23155;SDS011;11746;50.876;4.246;2023-04-03T15:50:42;4.97;;;1.23;;
23155;SDS011;11746;50.876;4.246;2023-04-03T15:53:12;2.85;;;1.38;;
23155;SDS011;11746;50.876;4.246;2023-04-03T15:55:38;7.75;;;1.42;;
23155;SDS011;11746;50.876;4.246;2023-04-03T15:58:04;2.40;;;0.95;;
23155;SDS011;11746;50.876;4.246;2023-04-03T16:00:32;5.70;;;1.55;;
23155;SDS011;11746;50.876;4.246;2023-04-03T16:02:59;20.52;;;2.13;;
23155;SDS011;11746;50.876;4.246;2023-04-03T16:05:37;3.33;;;1.50;;
23155;SDS011;11746;50.876;4.246;2023-04-03T16:08:04;17.95;;;3.92;;
23155;SDS011;11746;50.876;4.246;2023-04-03T16:10:35;4.22;;;1.20;;
23155;SDS011;11746;50.876;4.246;2023-04-03T16:13:04;6.13;;;1.75;;
23155;SDS011;11746;50.876;4.246;2023-04-03T16:15:32;3.13;;;1.10;;
23155;SDS011;11746;50.876;4.246;2023-04-03T16:18:04;4.18;;;1.50;;
23155;SDS011;11746;50.876;4.246;2023-04-03T16:20:30;3.58;;;1.17;;
23155;SDS011;11746;50.876;4.246;2023-04-03T16:22:59;2.88;;;1.60;;
23155;SDS011;11746;50.876;4.246;2023-04-03T16:25:25;2.55;;;1.23;;
23155;SDS011;11746;50.876;4.246;2023-04-03T16:27:53;10.18;;;1.60;;
23155;SDS011;11746;50.876;4.246;2023-04-03T16:30:21;5.57;;;1.60;;
23155;SDS011;11746;50.876;4.246;2023-04-03T16:32:47;2.08;;;1.25;;
23155;SDS011;11746;50.876;4.246;2023-04-03T16:35:13;9.30;;;1.55;;
23155;SDS011;11746;50.876;4.246;2023-04-03T16:37:39;2.85;;;1.40;;
23155;SDS011;11746;50.876;4.246;2023-04-03T16:40:05;2.47;;;1.52;;
23155;SDS011;11746;50.876;4.246;2023-04-03T16:42:32;4.03;;;1.83;;
23155;SDS011;11746;50.876;4.246;2023-04-03T16:44:58;4.78;;;1.90;;
23155;SDS011;11746;50.876;4.246;2023-04-03T16:47:26;2.63;;;1.20;;
23155;SDS011;11746;50.876;4.246;2023-04-03T16:49:54;3.83;;;1.70;;
23155;SDS011;11746;50.876;4.246;2023-04-03T16:52:19;4.95;;;2.00;;
23155;SDS011;11746;50.876;4.246;2023-04-03T16:54:47;19.40;;;2.10;;
23155;SDS011;11746;50.876;4.246;2023-04-03T16:57:13;4.22;;;1.77;;